PIC6036 VVTS-VVDN
Flight info
| Callsign | PIC6036 |
|---|---|
| Flight time | N/A |
| Altitude | 35000 |
| Route | PATM5P PATMA Q2 LATOM LATO2L |
| Aircraft | A321/M-SDE3FGHIRWY/LB1 |
Departure
| Time | 2026-05-07 13:30 |
|---|---|
| Airport | Tan Son Nhat International Airport (VVTS) |
Arrival
| Time | N/A |
|---|---|
| Airport | Da Nang International Airport (VVDN) |
| Time | Latitude | Longitude | Altitude | Speed | Heading |
|---|---|---|---|---|---|
| 2026-05-07 12:40 | 10.81340 | 106.65157 | 48 ft | 0 kts | 340° |
| 2026-05-07 13:20 | 10.81341 | 106.65157 | 48 ft | 0 kts | 340° |
| 2026-05-07 13:20 | 10.81347 | 106.65154 | 48 ft | 2 kts | 340° |
| 2026-05-07 13:20 | 10.81366 | 106.65148 | 48 ft | 4 kts | 344° |
| 2026-05-07 13:20 | 10.81397 | 106.65158 | 48 ft | 6 kts | 46° |
| 2026-05-07 13:21 | 10.81420 | 106.65200 | 48 ft | 8 kts | 64° |
| 2026-05-07 13:21 | 10.81447 | 106.65258 | 48 ft | 10 kts | 73° |
| 2026-05-07 13:21 | 10.81471 | 106.65332 | 48 ft | 12 kts | 70° |
| 2026-05-07 13:21 | 10.81503 | 106.65419 | 48 ft | 14 kts | 69° |
| 2026-05-07 13:22 | 10.81541 | 106.65519 | 48 ft | 16 kts | 69° |
| 2026-05-07 13:22 | 10.81584 | 106.65632 | 48 ft | 18 kts | 69° |
| 2026-05-07 13:22 | 10.81632 | 106.65759 | 48 ft | 20 kts | 69° |
| 2026-05-07 13:22 | 10.81685 | 106.65898 | 48 ft | 22 kts | 69° |
| 2026-05-07 13:23 | 10.81742 | 106.66052 | 48 ft | 24 kts | 69° |
| 2026-05-07 13:23 | 10.81806 | 106.66219 | 48 ft | 26 kts | 69° |
| 2026-05-07 13:23 | 10.81873 | 106.66397 | 48 ft | 28 kts | 69° |
| 2026-05-07 13:23 | 10.81946 | 106.66591 | 48 ft | 30 kts | 69° |
| 2026-05-07 13:24 | 10.82015 | 106.66776 | 48 ft | 25 kts | 69° |
| 2026-05-07 13:24 | 10.82100 | 106.66897 | 48 ft | 22 kts | 47° |
| 2026-05-07 13:24 | 10.82219 | 106.67005 | 48 ft | 24 kts | 19° |
| 2026-05-07 13:24 | 10.82276 | 106.67002 | 48 ft | 0 kts | 329° |
| 2026-05-07 13:26 | 10.82277 | 106.67002 | 48 ft | 0 kts | 329° |
| 2026-05-07 13:26 | 10.82284 | 106.66995 | 48 ft | 2 kts | 321° |
| 2026-05-07 13:27 | 10.82302 | 106.66979 | 48 ft | 4 kts | 314° |
| 2026-05-07 13:27 | 10.82325 | 106.66946 | 48 ft | 7 kts | 300° |
| 2026-05-07 13:27 | 10.82339 | 106.66895 | 48 ft | 9 kts | 270° |
| 2026-05-07 13:27 | 10.82332 | 106.66855 | 48 ft | 0 kts | 251° |
| 2026-05-07 13:30 | 10.82325 | 106.66834 | 48 ft | 18 kts | 250° |
| 2026-05-07 13:30 | 10.82238 | 106.66608 | 48 ft | 84 kts | 249° |
| 2026-05-07 13:30 | 10.81771 | 106.65381 | 256 ft | 174 kts | 249° |
| 2026-05-07 13:30 | 10.81503 | 106.64674 | 925 ft | 153 kts | 249° |
| 2026-05-07 13:31 | 10.80963 | 106.63255 | 1986 ft | 191 kts | 249° |
| 2026-05-07 13:31 | 10.80377 | 106.61725 | 1709 ft | 280 kts | 249° |
| 2026-05-07 13:31 | 10.79833 | 106.60321 | 839 ft | 349 kts | 248° |
| 2026-05-07 13:31 | 10.79182 | 106.57896 | 2154 ft | 346 kts | 263° |
| 2026-05-07 13:32 | 10.79301 | 106.55443 | 3807 ft | 353 kts | 280° |
| 2026-05-07 13:32 | 10.80305 | 106.53198 | 5428 ft | 335 kts | 309° |
| 2026-05-07 13:32 | 10.82037 | 106.51619 | 7297 ft | 340 kts | 323° |
| 2026-05-07 13:32 | 10.84256 | 106.50503 | 7709 ft | 378 kts | 335° |
| 2026-05-07 13:33 | 10.86649 | 106.49671 | 9797 ft | 349 kts | 340° |
| 2026-05-07 13:33 | 10.89046 | 106.49242 | 11169 ft | 361 kts | 353° |
| 2026-05-07 13:33 | 10.91688 | 106.49496 | 11056 ft | 408 kts | 11° |
| 2026-05-07 13:33 | 10.94125 | 106.50923 | 12704 ft | 393 kts | 39° |
| 2026-05-07 13:34 | 10.95903 | 106.53002 | 14408 ft | 390 kts | 51° |
| 2026-05-07 13:34 | 10.99325 | 106.57807 | 14657 ft | 438 kts | 51° |
| 2026-05-07 13:34 | 11.01080 | 106.60209 | 16675 ft | 418 kts | 51° |
| 2026-05-07 13:35 | 11.02841 | 106.62609 | 17244 ft | 433 kts | 51° |
| 2026-05-07 13:35 | 11.04766 | 106.65192 | 17226 ft | 451 kts | 51° |
| 2026-05-07 13:35 | 11.06591 | 106.67624 | 19043 ft | 433 kts | 50° |
| 2026-05-07 13:35 | 11.08445 | 106.70084 | 19391 ft | 449 kts | 50° |
| 2026-05-07 13:36 | 11.10419 | 106.72685 | 19456 ft | 458 kts | 50° |
| 2026-05-07 13:36 | 11.12279 | 106.75141 | 20641 ft | 427 kts | 50° |
| 2026-05-07 13:36 | 11.14076 | 106.77514 | 20225 ft | 421 kts | 50° |
| 2026-05-07 13:36 | 11.15883 | 106.79897 | 18256 ft | 435 kts | 50° |
| 2026-05-07 13:37 | 11.17811 | 106.82425 | 16861 ft | 448 kts | 50° |
| 2026-05-07 13:37 | 11.19673 | 106.84870 | 16234 ft | 430 kts | 50° |
| 2026-05-07 13:37 | 11.21525 | 106.87299 | 15016 ft | 432 kts | 50° |
| 2026-05-07 13:37 | 11.23308 | 106.89644 | 14556 ft | 413 kts | 50° |
| 2026-05-07 13:38 | 11.25097 | 106.91989 | 12837 ft | 431 kts | 50° |
| 2026-05-07 13:38 | 11.26864 | 106.94308 | 12793 ft | 401 kts | 50° |
| 2026-05-07 13:38 | 11.28578 | 106.96556 | 11326 ft | 407 kts | 50° |
| 2026-05-07 13:38 | 11.30323 | 106.98841 | 11007 ft | 394 kts | 50° |
| 2026-05-07 13:39 | 11.31981 | 107.01017 | 10088 ft | 389 kts | 50° |
| 2026-05-07 13:39 | 11.33687 | 107.03248 | 9023 ft | 395 kts | 50° |
| 2026-05-07 13:39 | 11.35298 | 107.05360 | 8755 ft | 375 kts | 50° |
| 2026-05-07 13:39 | 11.37126 | 107.07298 | 7050 ft | 393 kts | 37° |
| 2026-05-07 13:40 | 11.39249 | 107.08902 | 7092 ft | 365 kts | 33° |
| 2026-05-07 13:40 | 11.41295 | 107.10399 | 5992 ft | 366 kts | 33° |
| 2026-05-07 13:40 | 11.43376 | 107.11916 | 5688 ft | 352 kts | 33° |